Time;durP1;ratioP1;P1;durP2;ratioP2;P2;SDS_P1;SDS_P2;PMS_P1;PMS_P2;Temp;Humidity;BMP_temperature;BMP_pressure;BME280_temperature;BME280_humidity;BME280_pressure;Samples;Min_cycle;Max_cycle;Signal;HPM_P1;HPM_P2
2023/06/06 00:01:49;;;;;;;31.42;3.35;;;;;;;;;;5010145;28;20038;-43
2023/06/06 00:04:16;;;;;;;35.38;3.58;;;;;;;;;;5006164;28;20119;-42
2023/06/06 00:06:44;;;;;;;29.90;3.35;;;;;;;;;;5010086;28;20042;-42
2023/06/06 00:09:11;;;;;;;27.63;3.75;;;;;;;;;;5002608;28;20038;-43
2023/06/06 00:11:39;;;;;;;39.78;4.25;;;;;;;;;;4992436;28;20545;-41
2023/06/06 00:14:07;;;;;;;37.63;4.28;;;;;;;;;;5003081;28;20045;-41
2023/06/06 00:16:35;;;;;;;32.90;4.72;;;;;;;;;;5006331;28;20047;-42
2023/06/06 00:19:03;;;;;;;49.13;6.45;;;;;;;;;;5007021;28;20029;-40
2023/06/06 00:21:35;;;;;;;43.15;6.95;;;;;;;;;;5010961;28;20040;-43
2023/06/06 00:24:03;;;;;;;55.63;9.85;;;;;;;;;;5010917;28;20046;-41
2023/06/06 00:26:29;;;;;;;72.35;13.38;;;;;;;;;;5010803;28;20028;-42
2023/06/06 00:28:56;;;;;;;81.60;16.50;;;;;;;;;;5005866;28;20038;-47
2023/06/06 00:31:24;;;;;;;84.95;20.83;;;;;;;;;;5010777;28;20757;-43
2023/06/06 00:33:51;;;;;;;81.72;20.92;;;;;;;;;;5001055;28;20117;-42
2023/06/06 00:36:18;;;;;;;99.97;23.48;;;;;;;;;;5010939;28;20041;-42
2023/06/06 00:38:47;;;;;;;93.90;24.92;;;;;;;;;;5009697;28;20100;-41
2023/06/06 00:41:14;;;;;;;122.80;28.40;;;;;;;;;;5010743;28;20037;-42
2023/06/06 00:43:41;;;;;;;100.03;26.33;;;;;;;;;;5002151;28;20373;-40
2023/06/06 00:46:08;;;;;;;92.85;26.13;;;;;;;;;;4992409;28;20540;-41
2023/06/06 00:48:35;;;;;;;108.03;25.35;;;;;;;;;;4993970;28;20038;-42
2023/06/06 00:51:02;;;;;;;94.03;24.65;;;;;;;;;;5010271;28;20034;-44
2023/06/06 00:53:29;;;;;;;91.25;24.27;;;;;;;;;;4996629;28;20583;-39
2023/06/06 00:55:58;;;;;;;88.50;23.17;;;;;;;;;;4992038;28;20030;-40
2023/06/06 00:58:27;;;;;;;93.97;23.00;;;;;;;;;;5006310;28;20025;-41
2023/06/06 01:00:54;;;;;;;82.38;23.42;;;;;;;;;;5003760;28;20122;-41
2023/06/06 01:03:24;;;;;;;86.78;22.58;;;;;;;;;;5000713;28;20414;-39
2023/06/06 01:05:55;;;;;;;86.80;22.35;;;;;;;;;;5000586;28;20053;-41
2023/06/06 01:08:23;;;;;;;83.68;20.73;;;;;;;;;;5009818;28;20092;-40
2023/06/06 01:10:51;;;;;;;82.57;19.63;;;;;;;;;;5013852;28;20148;-40
2023/06/06 01:13:38;;;;;;;69.75;16.95;;;;;;;;;;5013132;28;20025;-40
2023/06/06 01:16:10;;;;;;;67.18;16.33;;;;;;;;;;5014062;28;20552;-42
2023/06/06 01:18:37;;;;;;;;;;;;;;;;;;5013522;28;20476;-41
2023/06/06 01:21:04;;;;;;;49.28;15.48;;;;;;;;;;5013537;28;20390;-41
2023/06/06 01:23:32;;;;;;;53.90;14.98;;;;;;;;;;5013323;28;20037;-41
2023/06/06 01:26:04;;;;;;;52.35;14.07;;;;;;;;;;5003794;28;20065;-42
2023/06/06 01:28:31;;;;;;;54.97;14.27;;;;;;;;;;5003233;28;20069;-42
2023/06/06 01:30:58;;;;;;;56.67;13.60;;;;;;;;;;5011539;28;20124;-42
2023/06/06 01:33:32;;;;;;;50.20;12.60;;;;;;;;;;5010181;28;20049;-42
2023/06/06 01:36:14;;;;;;;46.22;12.30;;;;;;;;;;5013032;28;20499;-43
2023/06/06 01:38:54;;;;;;;47.45;12.10;;;;;;;;;;5010335;28;20033;-42
2023/06/06 01:41:22;;;;;;;49.15;12.73;;;;;;;;;;5012806;28;20116;-42
2023/06/06 01:43:51;;;;;;;37.92;11.43;;;;;;;;;;5011486;28;20034;-42
2023/06/06 01:46:19;;;;;;;43.05;11.85;;;;;;;;;;5013120;28;20033;-41
2023/06/06 01:48:46;;;;;;;37.58;10.82;;;;;;;;;;5013084;28;20069;-42
2023/06/06 01:51:13;;;;;;;44.63;12.15;;;;;;;;;;5010709;28;20467;-42
2023/06/06 01:53:41;;;;;;;36.58;10.20;;;;;;;;;;5012951;28;20042;-43
2023/06/06 01:56:12;;;;;;;38.42;10.35;;;;;;;;;;5013080;28;20026;-42
2023/06/06 01:58:39;;;;;;;34.13;11.13;;;;;;;;;;5012876;28;20038;-43
2023/06/06 02:01:06;;;;;;;36.17;10.43;;;;;;;;;;5012910;28;20045;-42
2023/06/06 02:03:33;;;;;;;33.97;10.25;;;;;;;;;;5012827;28;20465;-42
2023/06/06 02:06:01;;;;;;;30.27;10.55;;;;;;;;;;5012966;28;20484;-43
2023/06/06 02:08:28;;;;;;;35.35;10.32;;;;;;;;;;5012584;28;20050;-41
2023/06/06 02:10:55;;;;;;;31.60;9.27;;;;;;;;;;5012725;28;20481;-44
2023/06/06 02:13:22;;;;;;;37.45;8.52;;;;;;;;;;5012345;28;20492;-42
2023/06/06 02:15:49;;;;;;;33.83;8.48;;;;;;;;;;5012540;28;20476;-41
2023/06/06 02:18:16;;;;;;;32.30;9.27;;;;;;;;;;5012743;28;20721;-42
2023/06/06 02:20:43;;;;;;;32.85;8.63;;;;;;;;;;5012685;28;20030;-42
2023/06/06 02:23:10;;;;;;;32.47;8.88;;;;;;;;;;5009959;28;20084;-44
2023/06/06 02:25:37;;;;;;;29.85;7.78;;;;;;;;;;5013138;28;20022;-45
2023/06/06 02:28:07;;;;;;;25.15;8.55;;;;;;;;;;5012974;28;20057;-42
2023/06/06 02:30:35;;;;;;;22.17;7.65;;;;;;;;;;5012888;28;20033;-41
2023/06/06 02:33:02;;;;;;;28.55;7.90;;;;;;;;;;5012634;28;20393;-42
2023/06/06 02:35:29;;;;;;;24.52;7.68;;;;;;;;;;5013009;28;20026;-41
2023/06/06 02:37:56;;;;;;;27.85;7.25;;;;;;;;;;5012930;28;20033;-44
2023/06/06 02:40:23;;;;;;;24.67;6.72;;;;;;;;;;5012896;28;20045;-42
2023/06/06 02:42:50;;;;;;;22.20;7.28;;;;;;;;;;5012755;28;20033;-44
2023/06/06 02:45:17;;;;;;;20.88;6.40;;;;;;;;;;5012834;28;20030;-43
2023/06/06 02:47:46;;;;;;;23.02;6.40;;;;;;;;;;5012737;28;20084;-43
2023/06/06 02:50:13;;;;;;;20.65;6.82;;;;;;;;;;5012502;28;20040;-43
2023/06/06 02:52:40;;;;;;;22.98;6.68;;;;;;;;;;4995172;28;20036;-44
2023/06/06 02:55:08;;;;;;;21.27;6.22;;;;;;;;;;5012542;28;20049;-43
2023/06/06 02:57:35;;;;;;;20.70;6.57;;;;;;;;;;5012565;28;20034;-42
2023/06/06 03:00:08;;;;;;;23.17;6.07;;;;;;;;;;5012534;28;20033;-42
2023/06/06 03:02:35;;;;;;;18.70;5.93;;;;;;;;;;5012177;28;20583;-44
2023/06/06 03:05:04;;;;;;;21.27;6.32;;;;;;;;;;5012444;28;20034;-43
2023/06/06 03:07:32;;;;;;;18.33;5.97;;;;;;;;;;5012243;28;20041;-44
2023/06/06 03:09:59;;;;;;;17.98;5.55;;;;;;;;;;5012222;28;20052;-42
2023/06/06 03:12:26;;;;;;;18.10;5.75;;;;;;;;;;5012308;28;20036;-43
2023/06/06 03:14:53;;;;;;;15.80;5.10;;;;;;;;;;5012281;28;20038;-45
2023/06/06 03:17:20;;;;;;;15.15;5.30;;;;;;;;;;5012326;28;20523;-42
2023/06/06 03:19:48;;;;;;;20.73;5.30;;;;;;;;;;5012301;28;20030;-42
2023/06/06 03:22:17;;;;;;;13.45;5.25;;;;;;;;;;5012140;28;20061;-42
2023/06/06 03:24:49;;;;;;;20.67;5.70;;;;;;;;;;5011869;28;20057;-42
2023/06/06 03:27:16;;;;;;;13.00;5.15;;;;;;;;;;5011572;28;20073;-42
2023/06/06 03:29:43;;;;;;;17.20;5.22;;;;;;;;;;5012115;28;20057;-43
2023/06/06 03:32:10;;;;;;;16.75;5.10;;;;;;;;;;5011902;28;20128;-42
2023/06/06 03:34:39;;;;;;;14.15;4.50;;;;;;;;;;5012011;28;20110;-42
2023/06/06 03:37:06;;;;;;;13.73;5.30;;;;;;;;;;5011883;28;20116;-43
2023/06/06 03:39:34;;;;;;;12.10;4.75;;;;;;;;;;5011914;28;20026;-42
2023/06/06 03:42:01;;;;;;;10.65;5.03;;;;;;;;;;5011865;28;20049;-42
2023/06/06 03:44:28;;;;;;;13.15;4.65;;;;;;;;;;5011901;28;20026;-42
2023/06/06 03:46:54;;;;;;;15.85;4.88;;;;;;;;;;5011900;28;20439;-43
2023/06/06 03:49:21;;;;;;;16.23;5.25;;;;;;;;;;5011861;28;20026;-42
2023/06/06 03:51:48;;;;;;;9.02;4.15;;;;;;;;;;5011836;28;20033;-42
2023/06/06 03:54:15;;;;;;;13.40;4.35;;;;;;;;;;5011754;28;20037;-42
2023/06/06 03:56:43;;;;;;;11.82;4.68;;;;;;;;;;5011798;28;20026;-43
2023/06/06 03:59:13;;;;;;;12.63;5.05;;;;;;;;;;5011733;28;20054;-41
2023/06/06 04:01:40;;;;;;;11.15;4.53;;;;;;;;;;4994083;28;20582;-42
2023/06/06 04:04:08;;;;;;;14.27;5.20;;;;;;;;;;5011676;28;20030;-42
2023/06/06 04:06:37;;;;;;;11.05;4.47;;;;;;;;;;5011717;28;20030;-43
2023/06/06 04:09:07;;;;;;;11.23;4.70;;;;;;;;;;5011697;28;20077;-42
2023/06/06 04:11:34;;;;;;;11.43;3.97;;;;;;;;;;5011637;28;20496;-44
2023/06/06 04:14:01;;;;;;;11.18;4.00;;;;;;;;;;5011523;28;20080;-42
2023/06/06 04:16:27;;;;;;;11.38;4.80;;;;;;;;;;4993802;28;20480;-42
2023/06/06 04:18:54;;;;;;;8.95;3.88;;;;;;;;;;5011548;28;20030;-43
2023/06/06 04:21:21;;;;;;;11.75;3.78;;;;;;;;;;5011561;28;20048;-42
2023/06/06 04:23:49;;;;;;;8.43;4.00;;;;;;;;;;5011362;28;20037;-44
2023/06/06 04:26:31;;;;;;;10.73;4.05;;;;;;;;;;5011552;28;20034;-42
2023/06/06 04:28:59;;;;;;;12.50;4.38;;;;;;;;;;5011235;28;20042;-44
2023/06/06 04:31:30;;;;;;;12.90;4.65;;;;;;;;;;5011339;28;20492;-41
2023/06/06 04:33:57;;;;;;;11.23;4.05;;;;;;;;;;5011046;28;20050;-43
2023/06/06 04:36:24;;;;;;;9.95;4.22;;;;;;;;;;5011796;28;20110;-43
2023/06/06 04:38:52;;;;;;;9.27;3.80;;;;;;;;;;5015180;28;20061;-41
2023/06/06 04:41:20;;;;;;;10.00;4.38;;;;;;;;;;5014879;28;20042;-44
2023/06/06 04:43:49;;;;;;;9.13;4.18;;;;;;;;;;5014974;28;20049;-42
2023/06/06 04:46:23;;;;;;;11.27;3.97;;;;;;;;;;5014956;28;20030;-42
2023/06/06 04:48:53;;;;;;;10.13;4.00;;;;;;;;;;5014836;28;20038;-44
2023/06/06 04:51:30;;;;;;;12.25;4.43;;;;;;;;;;5015008;28;20559;-42
2023/06/06 04:54:01;;;;;;;9.55;4.20;;;;;;;;;;5014790;28;20507;-42
2023/06/06 04:56:29;;;;;;;8.57;4.00;;;;;;;;;;5014910;28;20022;-42
2023/06/06 04:58:56;;;;;;;11.68;4.28;;;;;;;;;;5014843;28;20504;-42
2023/06/06 05:01:23;;;;;;;9.55;4.18;;;;;;;;;;5014679;28;20018;-43
2023/06/06 05:03:54;;;;;;;10.43;3.90;;;;;;;;;;5014356;28;20041;-44
2023/06/06 05:06:21;;;;;;;7.53;3.72;;;;;;;;;;4997043;28;20022;-41
2023/06/06 05:08:48;;;;;;;10.35;4.20;;;;;;;;;;5014588;28;20392;-44
2023/06/06 05:11:15;;;;;;;9.40;3.75;;;;;;;;;;5014565;28;20076;-43
2023/06/06 05:13:42;;;;;;;9.23;3.78;;;;;;;;;;4996840;28;20433;-42
2023/06/06 05:16:09;;;;;;;8.77;3.65;;;;;;;;;;5014403;28;20040;-42
2023/06/06 05:18:36;;;;;;;10.38;3.72;;;;;;;;;;5014447;28;20030;-43
2023/06/06 05:21:04;;;;;;;9.60;3.50;;;;;;;;;;5014319;28;20025;-42
2023/06/06 05:23:31;;;;;;;12.00;3.95;;;;;;;;;;5014343;28;20373;-43
2023/06/06 05:25:58;;;;;;;9.77;3.95;;;;;;;;;;5014357;28;20029;-42
2023/06/06 05:28:27;;;;;;;8.60;3.60;;;;;;;;;;5014213;28;20767;-42
2023/06/06 05:30:55;;;;;;;7.90;3.30;;;;;;;;;;4996638;28;20400;-43
2023/06/06 05:33:26;;;;;;;6.93;3.28;;;;;;;;;;5013939;28;20049;-42
2023/06/06 05:35:53;;;;;;;7.80;3.20;;;;;;;;;;5014192;28;20048;-43
2023/06/06 05:38:20;;;;;;;6.78;3.17;;;;;;;;;;5013916;28;20037;-42
2023/06/06 05:40:47;;;;;;;7.18;3.33;;;;;;;;;;5014038;28;20068;-42
2023/06/06 05:43:16;;;;;;;7.10;3.10;;;;;;;;;;5013933;28;20029;-42
2023/06/06 05:45:43;;;;;;;10.35;3.60;;;;;;;;;;5014175;28;20043;-42
2023/06/06 05:48:10;;;;;;;8.27;3.50;;;;;;;;;;5013204;28;20040;-42
2023/06/06 05:50:37;;;;;;;6.63;2.83;;;;;;;;;;5013890;28;20026;-43
2023/06/06 05:53:04;;;;;;;8.32;3.10;;;;;;;;;;5013761;28;20034;-42
2023/06/06 05:55:32;;;;;;;8.55;3.38;;;;;;;;;;5013773;28;20026;-41
2023/06/06 05:57:59;;;;;;;8.55;3.25;;;;;;;;;;5013698;28;20029;-43
2023/06/06 06:00:27;;;;;;;8.38;3.03;;;;;;;;;;5013733;28;20029;-42
2023/06/06 06:02:57;;;;;;;7.70;2.97;;;;;;;;;;5030753;28;20034;-44
2023/06/06 06:05:28;;;;;;;8.07;2.95;;;;;;;;;;5033229;28;20025;-42
2023/06/06 06:08:02;;;;;;;7.38;2.95;;;;;;;;;;5033267;28;20108;-42
2023/06/06 06:10:32;;;;;;;6.35;2.90;;;;;;;;;;5033309;28;20057;-42
2023/06/06 06:13:00;;;;;;;5.22;2.85;;;;;;;;;;5033098;28;20029;-42
2023/06/06 06:15:28;;;;;;;6.53;2.78;;;;;;;;;;5033165;28;20029;-43
2023/06/06 06:17:55;;;;;;;6.82;2.90;;;;;;;;;;5033019;28;20025;-42
2023/06/06 06:20:22;;;;;;;7.88;2.70;;;;;;;;;;5033097;28;20088;-42
2023/06/06 06:22:49;;;;;;;5.47;2.45;;;;;;;;;;5033264;28;20427;-42
2023/06/06 06:25:16;;;;;;;6.03;2.60;;;;;;;;;;5015061;28;20025;-43
2023/06/06 06:27:47;;;;;;;5.95;2.80;;;;;;;;;;5032874;28;20025;-43
2023/06/06 06:30:14;;;;;;;8.02;2.63;;;;;;;;;;5032655;28;20033;-42
2023/06/06 06:32:42;;;;;;;6.03;2.63;;;;;;;;;;5032470;28;20478;-43
2023/06/06 06:35:10;;;;;;;4.20;2.13;;;;;;;;;;5032855;28;20471;-42
2023/06/06 06:37:39;;;;;;;5.00;2.80;;;;;;;;;;5032691;28;20051;-43
2023/06/06 06:40:12;;;;;;;8.10;3.42;;;;;;;;;;5032510;28;20057;-42
2023/06/06 06:42:40;;;;;;;5.50;2.47;;;;;;;;;;5032493;28;20066;-46
2023/06/06 06:45:08;;;;;;;6.22;2.72;;;;;;;;;;5032574;28;20479;-42
2023/06/06 06:47:36;;;;;;;5.78;2.72;;;;;;;;;;5032479;28;20039;-44
2023/06/06 06:50:06;;;;;;;5.32;2.10;;;;;;;;;;5032508;28;20052;-42
2023/06/06 06:52:35;;;;;;;6.07;2.20;;;;;;;;;;5032489;28;20021;-42
2023/06/06 06:55:04;;;;;;;5.25;2.17;;;;;;;;;;5032022;28;20057;-42
2023/06/06 06:57:31;;;;;;;4.80;2.30;;;;;;;;;;5032240;28;20068;-42
2023/06/06 06:59:59;;;;;;;6.68;2.10;;;;;;;;;;5031669;28;20083;-43
2023/06/06 07:02:27;;;;;;;5.47;2.30;;;;;;;;;;5032089;28;20376;-42
2023/06/06 07:04:57;;;;;;;4.53;2.30;;;;;;;;;;5032276;28;20071;-44
2023/06/06 07:07:24;;;;;;;4.38;2.20;;;;;;;;;;5031964;28;20037;-42
2023/06/06 07:09:52;;;;;;;4.00;2.20;;;;;;;;;;5032121;28;20029;-42
2023/06/06 07:12:20;;;;;;;6.90;2.55;;;;;;;;;;5032035;28;20472;-42
2023/06/06 07:14:47;;;;;;;7.05;2.35;;;;;;;;;;5032062;28;20025;-42
2023/06/06 07:17:17;;;;;;;4.63;1.98;;;;;;;;;;5032055;28;20030;-41
2023/06/06 07:19:44;;;;;;;6.35;2.20;;;;;;;;;;5031846;28;20035;-44
2023/06/06 07:22:11;;;;;;;4.82;2.28;;;;;;;;;;5031901;28;20037;-42
2023/06/06 07:24:39;;;;;;;6.20;1.83;;;;;;;;;;5031907;28;20430;-43
2023/06/06 07:27:08;;;;;;;4.03;2.00;;;;;;;;;;5031908;28;20032;-42
2023/06/06 07:29:36;;;;;;;5.25;2.00;;;;;;;;;;5031683;28;20044;-43
2023/06/06 07:32:04;;;;;;;4.72;2.10;;;;;;;;;;5031469;28;20467;-42
2023/06/06 07:34:31;;;;;;;4.72;2.10;;;;;;;;;;5031975;28;20037;-42
2023/06/06 07:37:00;;;;;;;4.90;2.40;;;;;;;;;;5031650;28;20033;-42
2023/06/06 07:39:27;;;;;;;5.95;1.88;;;;;;;;;;5031707;28;20028;-41
2023/06/06 07:41:54;;;;;;;4.50;2.45;;;;;;;;;;5031628;28;20017;-45
2023/06/06 07:44:21;;;;;;;3.63;1.90;;;;;;;;;;5031671;28;20036;-43
2023/06/06 07:46:48;;;;;;;5.72;1.92;;;;;;;;;;5031660;28;20028;-42
2023/06/06 07:49:15;;;;;;;5.53;1.88;;;;;;;;;;5031627;28;20083;-45
2023/06/06 07:51:42;;;;;;;6.18;1.98;;;;;;;;;;5031498;28;20437;-43
2023/06/06 07:54:09;;;;;;;7.13;2.05;;;;;;;;;;5031509;28;20021;-42
2023/06/06 07:56:37;;;;;;;5.28;1.85;;;;;;;;;;5031443;28;20451;-43
2023/06/06 07:59:04;;;;;;;4.55;2.08;;;;;;;;;;5031427;28;20386;-43
2023/06/06 08:01:33;;;;;;;4.93;1.85;;;;;;;;;;5031375;28;20043;-42
2023/06/06 08:04:00;;;;;;;5.10;1.80;;;;;;;;;;5031361;28;20117;-43
2023/06/06 08:06:33;;;;;;;11.55;1.70;;;;;;;;;;5031474;28;20045;-42
2023/06/06 08:09:00;;;;;;;3.15;1.80;;;;;;;;;;5031198;28;20117;-45
2023/06/06 08:11:27;;;;;;;4.18;1.67;;;;;;;;;;5031867;28;20033;-42
2023/06/06 08:13:53;;;;;;;5.05;1.60;;;;;;;;;;5035341;28;20096;-43
2023/06/06 08:16:21;;;;;;;3.10;1.60;;;;;;;;;;5035378;28;20037;-45
2023/06/06 08:18:48;;;;;;;4.13;1.50;;;;;;;;;;5035432;28;20033;-41
2023/06/06 08:21:15;;;;;;;3.92;1.70;;;;;;;;;;5035297;28;20424;-45
2023/06/06 08:23:42;;;;;;;2.85;1.50;;;;;;;;;;5035218;28;20487;-42
2023/06/06 08:26:10;;;;;;;5.18;1.73;;;;;;;;;;5035228;28;20028;-42
2023/06/06 08:28:37;;;;;;;3.95;1.60;;;;;;;;;;5035142;28;20056;-42
2023/06/06 08:31:04;;;;;;;4.45;1.45;;;;;;;;;;5035165;28;20080;-42
2023/06/06 08:33:31;;;;;;;5.15;1.70;;;;;;;;;;5034947;28;20117;-42
2023/06/06 08:35:58;;;;;;;4.15;1.50;;;;;;;;;;5034994;28;20033;-43
2023/06/06 08:38:25;;;;;;;2.85;1.60;;;;;;;;;;5034909;28;20083;-44
2023/06/06 08:40:53;;;;;;;3.65;1.60;;;;;;;;;;5034914;28;20029;-42
2023/06/06 08:43:21;;;;;;;3.42;1.40;;;;;;;;;;5034829;28;20029;-43
2023/06/06 08:45:52;;;;;;;3.78;1.40;;;;;;;;;;5034889;28;20502;-42
2023/06/06 08:48:20;;;;;;;4.45;1.55;;;;;;;;;;5034715;28;20083;-44
2023/06/06 08:50:49;;;;;;;3.25;1.45;;;;;;;;;;5034740;28;20399;-42
2023/06/06 08:53:16;;;;;;;2.85;1.40;;;;;;;;;;5034672;28;20506;-45
2023/06/06 08:55:43;;;;;;;4.90;1.60;;;;;;;;;;5034673;28;20041;-42
2023/06/06 08:58:11;;;;;;;7.07;1.45;;;;;;;;;;5034545;28;20112;-43
2023/06/06 09:00:38;;;;;;;5.63;1.50;;;;;;;;;;5034338;28;20029;-41
2023/06/06 09:03:09;;;;;;;4.85;1.88;;;;;;;;;;5034458;28;20510;-43
2023/06/06 09:05:38;;;;;;;3.63;1.88;;;;;;;;;;5034480;28;20032;-42
2023/06/06 09:08:05;;;;;;;3.95;1.90;;;;;;;;;;5034346;28;20041;-44
2023/06/06 09:10:32;;;;;;;5.35;1.70;;;;;;;;;;5034323;28;20033;-43
2023/06/06 09:12:59;;;;;;;3.95;1.75;;;;;;;;;;5016594;28;20042;-46
2023/06/06 09:15:27;;;;;;;4.32;2.10;;;;;;;;;;4995052;28;20037;-42
2023/06/06 09:17:55;;;;;;;4.50;1.75;;;;;;;;;;4994816;28;20447;-42
2023/06/06 09:20:24;;;;;;;3.88;1.75;;;;;;;;;;4994990;28;20041;-42
2023/06/06 09:22:51;;;;;;;4.03;1.50;;;;;;;;;;4994168;28;20030;-41
2023/06/06 09:25:22;;;;;;;3.63;1.40;;;;;;;;;;4994278;28;20026;-43
2023/06/06 09:27:55;;;;;;;4.60;1.63;;;;;;;;;;4998897;28;20437;-41
2023/06/06 09:30:23;;;;;;;3.25;1.73;;;;;;;;;;5013813;28;20400;-41
2023/06/06 09:32:56;;;;;;;3.70;1.70;;;;;;;;;;5013823;28;20432;-41
2023/06/06 09:35:25;;;;;;;5.55;1.65;;;;;;;;;;5014002;28;20092;-43
2023/06/06 09:37:53;;;;;;;3.97;1.92;;;;;;;;;;5014045;28;20423;-42
2023/06/06 09:40:20;;;;;;;3.50;1.83;;;;;;;;;;5014098;28;20080;-41
2023/06/06 09:42:48;;;;;;;3.55;1.40;;;;;;;;;;5007086;28;20423;-40
2023/06/06 09:45:21;;;;;;;4.65;1.70;;;;;;;;;;4990499;28;20117;-41
2023/06/06 09:47:49;;;;;;;4.05;1.55;;;;;;;;;;4994249;28;20037;-43
2023/06/06 09:50:17;;;;;;;5.20;1.75;;;;;;;;;;4994129;28;20503;-41
2023/06/06 09:52:44;;;;;;;5.20;1.55;;;;;;;;;;4994244;28;20477;-42
2023/06/06 09:55:15;;;;;;;3.85;1.40;;;;;;;;;;4994084;28;20453;-41
2023/06/06 09:57:42;;;;;;;6.00;1.30;;;;;;;;;;4994014;28;20116;-42
2023/06/06 10:00:29;;;;;;;4.28;1.40;;;;;;;;;;4994113;28;20022;-41
2023/06/06 10:02:58;;;;;;;4.30;1.48;;;;;;;;;;4993953;28;20431;-42
2023/06/06 10:05:25;;;;;;;5.00;1.40;;;;;;;;;;4994065;28;20388;-41
2023/06/06 10:07:52;;;;;;;3.15;1.67;;;;;;;;;;4993923;28;20026;-41
2023/06/06 10:10:19;;;;;;;5.00;1.42;;;;;;;;;;4994017;28;20041;-41
2023/06/06 10:12:46;;;;;;;4.20;1.63;;;;;;;;;;4993674;28;20109;-40
2023/06/06 10:15:13;;;;;;;4.95;1.60;;;;;;;;;;4993845;28;20146;-42
2023/06/06 10:17:41;;;;;;;4.45;1.30;;;;;;;;;;4993619;28;20109;-41
2023/06/06 10:20:16;;;;;;;4.70;1.40;;;;;;;;;;5010154;28;20053;-40
2023/06/06 10:22:43;;;;;;;4.22;1.50;;;;;;;;;;5012076;28;20088;-45
2023/06/06 10:25:14;;;;;;;4.53;1.50;;;;;;;;;;5009276;28;20038;-41
2023/06/06 10:27:47;;;;;;;6.28;1.48;;;;;;;;;;5010532;28;20125;-41
2023/06/06 10:30:21;;;;;;;3.90;1.40;;;;;;;;;;5012456;28;20022;-43
2023/06/06 10:33:01;;;;;;;5.45;1.40;;;;;;;;;;5012248;28;20052;-43
2023/06/06 10:35:28;;;;;;;4.93;1.38;;;;;;;;;;5011195;28;20030;-41
2023/06/06 10:38:04;;;;;;;4.43;1.40;;;;;;;;;;4994941;28;20053;-40
2023/06/06 10:40:51;;;;;;;4.28;1.40;;;;;;;;;;5012482;28;20045;-42
2023/06/06 10:43:33;;;;;;;3.38;1.38;;;;;;;;;;5012437;28;20480;-41
2023/06/06 10:46:01;;;;;;;3.00;1.50;;;;;;;;;;5012635;28;20034;-40
2023/06/06 10:48:41;;;;;;;3.10;1.40;;;;;;;;;;5012642;28;20037;-43
2023/06/06 10:51:09;;;;;;;5.80;1.40;;;;;;;;;;5012786;28;20030;-41
2023/06/06 10:53:36;;;;;;;6.22;1.63;;;;;;;;;;5012572;28;20476;-41
2023/06/06 10:56:07;;;;;;;6.07;2.00;;;;;;;;;;5012714;28;20833;-41
2023/06/06 10:58:35;;;;;;;6.10;1.88;;;;;;;;;;5012657;28;20492;-40
2023/06/06 11:01:06;;;;;;;5.15;1.88;;;;;;;;;;5012613;28;20421;-40
2023/06/06 11:03:35;;;;;;;4.20;1.63;;;;;;;;;;5012472;28;20169;-40
2023/06/06 11:06:02;;;;;;;5.63;1.95;;;;;;;;;;5012395;28;20025;-42
2023/06/06 11:08:41;;;;;;;4.57;1.70;;;;;;;;;;5011844;28;20058;-42
2023/06/06 11:11:20;;;;;;;6.20;2.13;;;;;;;;;;4993407;28;20038;-37
2023/06/06 11:13:51;;;;;;;6.53;2.05;;;;;;;;;;5009898;28;20076;-41
2023/06/06 11:16:38;;;;;;;4.30;2.10;;;;;;;;;;5011242;28;20029;-40
2023/06/06 11:19:09;;;;;;;9.23;2.30;;;;;;;;;;4998086;28;20041;-41
2023/06/06 11:21:37;;;;;;;8.55;2.22;;;;;;;;;;5011463;28;20026;-42
2023/06/06 11:24:04;;;;;;;11.45;2.35;;;;;;;;;;5011408;28;20068;-38
2023/06/06 11:26:31;;;;;;;21.27;2.90;;;;;;;;;;5011965;28;20034;-44
2023/06/06 11:29:00;;;;;;;18.85;2.60;;;;;;;;;;5011809;28;20113;-43
2023/06/06 11:31:28;;;;;;;134.73;12.02;;;;;;;;;;5011629;28;20064;-48
2023/06/06 11:34:05;;;;;;;53.05;5.95;;;;;;;;;;5011716;28;20100;-43
2023/06/06 11:36:34;;;;;;;45.88;5.15;;;;;;;;;;5011646;28;20045;-42
2023/06/06 11:39:01;;;;;;;33.83;3.92;;;;;;;;;;5011800;28;20038;-42
2023/06/06 11:41:29;;;;;;;24.67;4.00;;;;;;;;;;5011747;28;20476;-42
2023/06/06 11:43:56;;;;;;;20.55;3.15;;;;;;;;;;5011863;28;20038;-43
2023/06/06 11:46:23;;;;;;;121.05;9.57;;;;;;;;;;5011180;28;20030;-41
2023/06/06 11:48:57;;;;;;;157.65;11.50;;;;;;;;;;5011529;28;20037;-40
2023/06/06 11:51:24;;;;;;;81.43;7.70;;;;;;;;;;5011603;28;20029;-41
2023/06/06 11:53:51;;;;;;;65.20;5.80;;;;;;;;;;5011626;28;20065;-40
2023/06/06 11:56:19;;;;;;;61.08;6.13;;;;;;;;;;5011691;28;20403;-41
2023/06/06 11:58:46;;;;;;;55.33;5.97;;;;;;;;;;5011618;28;20034;-44
2023/06/06 12:01:15;;;;;;;42.15;5.38;;;;;;;;;;5011447;28;20033;-41
2023/06/06 12:03:42;;;;;;;47.65;5.57;;;;;;;;;;5011346;28;20508;-44
2023/06/06 12:06:10;;;;;;;37.78;5.18;;;;;;;;;;5011386;28;20041;-41
2023/06/06 12:08:38;;;;;;;39.85;5.07;;;;;;;;;;5011509;28;20077;-44
2023/06/06 12:11:24;;;;;;;89.28;7.65;;;;;;;;;;5011427;28;20396;-43
2023/06/06 12:13:52;;;;;;;64.55;6.68;;;;;;;;;;5011495;28;20114;-43
2023/06/06 12:16:27;;;;;;;52.90;6.20;;;;;;;;;;5011446;28;20030;-44
2023/06/06 12:18:55;;;;;;;54.95;6.93;;;;;;;;;;5011412;28;20377;-43
2023/06/06 12:21:22;;;;;;;56.75;7.85;;;;;;;;;;5011216;28;20026;-48
2023/06/06 12:23:51;;;;;;;54.25;6.93;;;;;;;;;;5011372;28;20030;-46
2023/06/06 12:26:18;;;;;;;53.83;7.20;;;;;;;;;;5011405;28;20034;-44
2023/06/06 12:29:01;;;;;;;55.28;8.52;;;;;;;;;;5011116;28;20034;-45
2023/06/06 12:31:30;;;;;;;52.03;6.38;;;;;;;;;;5011029;28;20033;-44
2023/06/06 12:33:58;;;;;;;54.22;7.15;;;;;;;;;;5010929;28;20054;-47
2023/06/06 12:36:26;;;;;;;55.65;7.32;;;;;;;;;;5011266;28;20081;-45
2023/06/06 12:38:59;;;;;;;52.33;6.55;;;;;;;;;;5010964;28;20120;-44
2023/06/06 12:41:40;;;;;;;46.28;7.15;;;;;;;;;;5011155;28;20484;-44
2023/06/06 12:44:16;;;;;;;47.80;6.57;;;;;;;;;;5011179;28;20037;-46
2023/06/06 12:46:45;;;;;;;47.53;6.90;;;;;;;;;;5011006;28;20040;-47
2023/06/06 12:49:12;;;;;;;63.30;7.43;;;;;;;;;;5010911;28;20112;-45
2023/06/06 12:51:39;;;;;;;48.53;6.88;;;;;;;;;;5011085;28;20093;-45
2023/06/06 12:54:06;;;;;;;51.65;6.85;;;;;;;;;;5010981;28;20041;-43
2023/06/06 12:56:33;;;;;;;44.15;6.82;;;;;;;;;;5011112;28;20033;-45
2023/06/06 12:59:01;;;;;;;44.95;7.20;;;;;;;;;;4996138;28;20042;-44
2023/06/06 13:01:29;;;;;;;40.30;6.20;;;;;;;;;;5014587;28;20033;-44
2023/06/06 13:03:56;;;;;;;43.05;6.47;;;;;;;;;;5014590;28;20030;-45
2023/06/06 13:06:23;;;;;;;41.95;5.95;;;;;;;;;;5014542;28;20487;-45
2023/06/06 13:08:50;;;;;;;45.60;6.53;;;;;;;;;;5014475;28;20042;-43
2023/06/06 13:11:17;;;;;;;33.72;5.22;;;;;;;;;;5014248;28;20447;-45
2023/06/06 13:13:45;;;;;;;38.33;6.28;;;;;;;;;;5014436;28;20022;-44
2023/06/06 13:16:12;;;;;;;33.75;5.60;;;;;;;;;;5014252;28;20048;-43
2023/06/06 13:18:39;;;;;;;32.78;5.35;;;;;;;;;;5014324;28;20030;-45
2023/06/06 13:21:06;;;;;;;40.70;5.22;;;;;;;;;;5014301;28;20026;-43
2023/06/06 13:23:33;;;;;;;40.03;6.18;;;;;;;;;;5013976;28;20721;-44
2023/06/06 13:26:00;;;;;;;44.25;5.68;;;;;;;;;;5014146;28;20101;-47
2023/06/06 13:28:27;;;;;;;38.63;6.07;;;;;;;;;;5014073;28;20145;-45
2023/06/06 13:30:54;;;;;;;26.55;4.75;;;;;;;;;;5013228;28;20124;-46
2023/06/06 13:33:22;;;;;;;37.28;5.05;;;;;;;;;;5013517;28;20144;-46
2023/06/06 13:35:49;;;;;;;31.67;4.55;;;;;;;;;;5013725;28;20034;-45
2023/06/06 13:38:23;;;;;;;35.58;4.88;;;;;;;;;;5013887;28;20104;-48
2023/06/06 13:40:53;;;;;;;30.70;5.30;;;;;;;;;;5013658;28;20128;-46
2023/06/06 13:43:20;;;;;;;24.48;4.13;;;;;;;;;;5013335;28;20080;-44
2023/06/06 13:45:47;;;;;;;36.38;4.40;;;;;;;;;;5013452;28;20463;-44
2023/06/06 13:48:14;;;;;;;22.17;4.03;;;;;;;;;;5013182;28;20041;-47
2023/06/06 13:50:41;;;;;;;16.60;3.78;;;;;;;;;;5013596;28;20049;-44
2023/06/06 13:53:08;;;;;;;24.23;4.45;;;;;;;;;;5013686;28;20358;-44
2023/06/06 13:55:35;;;;;;;23.35;3.50;;;;;;;;;;5013674;28;20029;-43
2023/06/06 13:58:03;;;;;;;27.45;3.67;;;;;;;;;;5013590;28;20110;-44
2023/06/06 14:00:32;;;;;;;24.23;3.47;;;;;;;;;;5013416;28;20492;-44
2023/06/06 14:03:02;;;;;;;25.75;3.70;;;;;;;;;;5013309;28;20436;-44
2023/06/06 14:05:29;;;;;;;23.23;3.83;;;;;;;;;;5013469;28;20092;-44
2023/06/06 14:07:57;;;;;;;25.88;3.35;;;;;;;;;;5013350;28;20052;-43
2023/06/06 14:10:27;;;;;;;24.10;3.75;;;;;;;;;;5012943;28;20808;-49
2023/06/06 14:12:54;;;;;;;26.33;3.25;;;;;;;;;;5013251;28;20037;-49
2023/06/06 14:15:21;;;;;;;34.75;3.90;;;;;;;;;;5013358;28;20061;-46
2023/06/06 14:17:48;;;;;;;27.45;4.15;;;;;;;;;;5013216;28;20091;-45
2023/06/06 14:20:21;;;;;;;30.58;3.95;;;;;;;;;;4995631;28;20037;-47
2023/06/06 14:22:51;;;;;;;28.35;3.88;;;;;;;;;;5012886;28;20042;-44
2023/06/06 14:25:18;;;;;;;24.77;3.28;;;;;;;;;;5013172;28;20557;-47
2023/06/06 14:27:45;;;;;;;22.23;3.22;;;;;;;;;;5012852;28;20030;-46
2023/06/06 14:30:13;;;;;;;17.75;3.20;;;;;;;;;;5013036;28;20026;-45
2023/06/06 14:32:40;;;;;;;22.40;3.92;;;;;;;;;;5012693;28;20096;-45
2023/06/06 14:35:08;;;;;;;16.65;3.15;;;;;;;;;;5013058;28;20492;-46
2023/06/06 14:37:36;;;;;;;20.40;4.07;;;;;;;;;;5012910;28;20653;-47
2023/06/06 14:40:07;;;;;;;16.42;3.17;;;;;;;;;;5012925;28;20034;-46
2023/06/06 14:42:34;;;;;;;15.15;3.08;;;;;;;;;;5012818;28;20034;-45